Terminal Aerodrome Forecast
Issued by NWS

Current Version | Previous Version | Text Only | Print | Product List | Glossary On
Versions: 1 2 3 4 5 6 7 8 9 10 11 12 13 14
000
FTUS46 KMFR 251133
TAFRBG
TAF
KRBG 251133Z 2512/2612 00000KT P6SM -SHRA SCT015 OVC030
     FM251900 33005KT P6SM VCSH SCT025 BKN050
     FM260600 00000KT P6SM BKN040=

USA.gov is the U.S. government's official web portal to all federal, state and local government web resources and services.